Time;durP1;ratioP1;P1;durP2;ratioP2;P2;SDS_P1;SDS_P2;PMS_P1;PMS_P2;Temp;Humidity;BMP_temperature;BMP_pressure;BME280_temperature;BME280_humidity;BME280_pressure;Samples;Min_cycle;Max_cycle;Signal;HPM_P1;HPM_P2
2024/04/21 00:01:32;;;;;;;;;;;;;;;12.75;49.92;100646.03;5529908;25;19940;-82
2024/04/21 00:04:24;;;;;;;;;;;;;;;12.59;46.43;100642.31;5512972;26;19951;-81
2024/04/21 00:07:13;;;;;;;;;;;;;;;12.49;47.36;100639.97;5527538;25;19951;-80
2024/04/21 00:10:05;;;;;;;;;;;;;;;12.54;48.71;100632.41;5491989;26;19951;-80
2024/04/21 00:12:54;;;;;;;;;;;;;;;12.68;48.85;100640.34;5516196;26;19951;-82
2024/04/21 00:15:44;;;;;;;;;;;;;;;13.07;52.60;100630.88;5498676;26;19947;-80
2024/04/21 00:18:36;;;;;;;;;;;;;;;13.36;55.33;100630.03;5500442;26;19940;-81
2024/04/21 00:21:28;;;;;;;;;;;;;;;13.64;56.77;100626.38;5511223;25;19947;-80
2024/04/21 00:24:20;;;;;;;;;;;;;;;13.92;57.19;100632.00;5479915;26;19948;-80
2024/04/21 00:27:12;;;;;;;;;;;;;;;14.22;57.50;100629.84;5539833;25;19950;-81
2024/04/21 00:30:05;;;;;;;;;;;;;;;14.32;55.87;100626.69;5484631;25;19952;-81
2024/04/21 00:32:57;;;;;;;;;;;;;;;14.45;55.42;100620.09;5516665;25;19959;-80
2024/04/21 00:35:49;;;;;;;;;;;;;;;14.61;56.24;100624.88;5484012;25;19951;-79
2024/04/21 00:38:39;;;;;;;;;;;;;;;14.69;55.67;100624.72;5524715;25;19939;-80
2024/04/21 00:41:31;;;;;;;;;;;;;;;14.63;54.61;100612.41;5512140;25;19950;-79
2024/04/21 00:44:23;;;;;;;;;;;;;;;14.58;54.40;100609.16;5520688;25;19954;-80
2024/04/21 00:47:15;;;;;;;;;;;;;;;14.50;53.72;100614.38;5543394;25;19946;-80
2024/04/21 00:50:08;;;;;;;;;;;;;;;14.55;53.77;100611.41;5493581;25;19948;-79
2024/04/21 00:53:00;;;;;;;;;;;;;;;14.66;53.92;100608.22;5495829;26;20767;-80
2024/04/21 00:55:51;;;;;;;;;;;;;;;14.82;54.32;100603.63;5498458;26;20290;-80
2024/04/21 00:58:44;;;;;;;;;;;;;;;14.85;52.47;100597.44;5490737;25;19948;-82
2024/04/21 01:01:34;;;;;;;;;;;;;;;14.84;50.55;100593.09;5505857;25;19959;-78
2024/04/21 01:04:26;;;;;;;;;;;;;;;14.79;49.37;100593.34;5542736;25;19955;-80
2024/04/21 01:07:18;;;;;;;;;;;;;;;14.87;50.18;100592.41;5536445;25;19955;-80
2024/04/21 01:10:10;;;;;;;;;;;;;;;14.99;51.08;100587.69;5535330;25;19948;-80
2024/04/21 01:13:00;;;;;;;;;;;;;;;15.01;50.90;100590.09;5512285;25;19958;-80
2024/04/21 01:15:52;;;;;;;;;;;;;;;15.01;50.67;100598.31;5505498;25;19951;-81
2024/04/21 01:18:44;;;;;;;;;;;;;;;14.97;50.29;100602.88;5509390;25;20428;-81
2024/04/21 01:21:33;;;;;;;;;;;;;;;14.83;48.64;100597.78;5523446;25;19955;-82
2024/04/21 01:24:25;;;;;;;;;;;;;;;14.75;48.87;100603.38;5514881;26;19951;-82
2024/04/21 01:27:13;;;;;;;;;;;;;;;14.49;42.41;100601.84;5487457;26;19951;-81
2024/04/21 01:30:05;;;;;;;;;;;;;;;14.22;37.25;100597.03;5497421;26;19967;-81
2024/04/21 01:32:56;;;;;;;;;;;;;;;14.31;42.61;100595.00;5521427;25;19947;-81
2024/04/21 01:35:48;;;;;;;;;;;;;;;14.38;43.68;100592.50;5515811;25;20293;-81
2024/04/21 01:38:40;;;;;;;;;;;;;;;14.24;39.61;100592.03;5477467;26;19947;-81
2024/04/21 01:41:32;;;;;;;;;;;;;;;13.98;33.67;100586.09;5497043;26;19951;-81
2024/04/21 01:44:22;;;;;;;;;;;;;;;14.19;39.96;100595.00;5505693;26;19939;-83
2024/04/21 01:47:14;;;;;;;;;;;;;;;14.40;47.22;100592.16;5519999;26;19955;-83
2024/04/21 01:50:06;;;;;;;;;;;;;;;14.59;50.13;100589.63;5534846;25;19940;-83
2024/04/21 01:52:58;;;;;;;;;;;;;;;14.69;52.29;100586.41;5522043;25;19955;-82
2024/04/21 01:55:47;;;;;;;;;;;;;;;14.63;52.24;100578.81;5531710;25;20408;-81
2024/04/21 01:58:39;;;;;;;;;;;;;;;14.75;52.68;100582.28;5532010;25;19964;-81
2024/04/21 02:01:31;;;;;;;;;;;;;;;14.71;50.43;100581.41;5530886;25;19939;-80
2024/04/21 02:04:23;;;;;;;;;;;;;;;14.83;50.66;100584.09;5527761;25;20444;-79
2024/04/21 02:07:15;;;;;;;;;;;;;;;14.94;51.77;100584.41;5525523;26;20626;-78
2024/04/21 02:10:05;;;;;;;;;;;;;;;14.96;51.79;100579.38;5500466;25;19951;-80
2024/04/21 02:12:54;;;;;;;;;;;;;;;15.09;52.44;100582.84;5524855;25;20390;-79
2024/04/21 02:15:44;;;;;;;;;;;;;;;15.19;52.78;100583.16;5526933;25;19951;-79
2024/04/21 02:18:36;;;;;;;;;;;;;;;15.22;52.25;100585.22;5520204;26;19963;-79
2024/04/21 02:21:28;;;;;;;;;;;;;;;14.99;48.83;100582.22;5490005;26;19955;-78
2024/04/21 02:24:17;;;;;;;;;;;;;;;14.80;48.41;100578.50;5484127;26;19948;-81
2024/04/21 02:27:09;;;;;;;;;;;;;;;14.46;38.99;100577.91;5488608;26;19952;-80
2024/04/21 02:29:59;;;;;;;;;;;;;;;14.30;34.22;100579.72;5505079;26;19940;-79
2024/04/21 02:32:51;;;;;;;;;;;;;;;14.24;34.60;100575.63;5487375;25;19947;-81
2024/04/21 02:35:41;;;;;;;;;;;;;;;13.88;32.43;100559.22;5484386;26;19947;-79
2024/04/21 02:38:30;;;;;;;;;;;;;;;14.21;41.38;100579.06;5514634;25;19947;-80
2024/04/21 02:41:20;;;;;;;;;;;;;;;14.30;44.95;100576.97;5529704;25;20289;-83
2024/04/21 02:44:09;;;;;;;;;;;;;;;14.35;45.50;100584.97;5527866;26;19955;-81
2024/04/21 02:47:01;;;;;;;;;;;;;;;14.56;49.84;100582.13;5537352;25;19939;-82
2024/04/21 02:49:54;;;;;;;;;;;;;;;14.77;51.19;100580.03;5519992;25;19967;-82
2024/04/21 02:52:46;;;;;;;;;;;;;;;14.93;52.47;100571.88;5531104;25;19952;-80
2024/04/21 02:55:41;;;;;;;;;;;;;;;14.92;52.51;100571.06;5497849;25;20740;-83
2024/04/21 02:58:34;;;;;;;;;;;;;;;14.93;52.14;100561.69;5522172;25;19940;-83
2024/04/21 03:01:23;;;;;;;;;;;;;;;14.91;52.06;100557.72;5528598;25;19948;-83
2024/04/21 03:04:17;;;;;;;;;;;;;;;14.97;52.37;100554.41;5517267;26;19952;-82
2024/04/21 03:07:09;;;;;;;;;;;;;;;14.69;46.60;100560.97;5494590;26;19975;-82
2024/04/21 03:10:01;;;;;;;;;;;;;;;14.30;36.39;100555.09;5528031;26;19951;-83
2024/04/21 03:12:53;;;;;;;;;;;;;;;14.06;37.28;100555.13;5501992;26;20296;-83
2024/04/21 03:15:45;;;;;;;;;;;;;;;13.75;33.97;100554.88;5527855;25;19947;-82
2024/04/21 03:18:35;;;;;;;;;;;;;;;13.55;31.66;100548.38;5501694;25;20282;-82
2024/04/21 03:21:27;;;;;;;;;;;;;;;13.68;39.69;100553.50;5494073;26;19952;-82
2024/04/21 03:24:19;;;;;;;;;;;;;;;13.92;46.63;100549.19;5526825;25;19951;-82
2024/04/21 03:27:09;;;;;;;;;;;;;;;14.01;50.49;100547.16;5527863;25;19940;-80
2024/04/21 03:30:01;;;;;;;;;;;;;;;14.10;51.26;100547.81;5515847;25;19956;-80
2024/04/21 03:32:53;;;;;;;;;;;;;;;14.42;52.24;100546.91;5512948;25;19954;-82
2024/04/21 03:35:45;;;;;;;;;;;;;;;14.41;49.83;100544.53;5527736;25;19947;-80
2024/04/21 03:38:38;;;;;;;;;;;;;;;14.32;47.27;100541.88;5526010;26;19955;-81
2024/04/21 03:41:27;;;;;;;;;;;;;;;14.06;39.26;100538.72;5525985;25;19947;-79
2024/04/21 03:44:22;;;;;;;;;;;;;;;14.05;43.15;100540.66;5508870;26;20389;-82
2024/04/21 03:47:14;;;;;;;;;;;;;;;13.85;36.17;100538.84;5481912;26;20306;-81
2024/04/21 03:50:06;;;;;;;;;;;;;;;13.62;30.73;100535.72;5518060;25;19947;-80
2024/04/21 03:52:58;;;;;;;;;;;;;;;13.66;32.64;100531.16;5501562;25;19940;-80
2024/04/21 03:55:50;;;;;;;;;;;;;;;13.54;30.80;100531.19;5512541;26;19967;-79
2024/04/21 03:58:42;;;;;;;;;;;;;;;13.48;30.77;100531.72;5503319;26;19947;-79
2024/04/21 04:01:29;;;;;;;;;;;;;;;13.45;32.89;100525.03;5488179;26;19952;-81
2024/04/21 04:04:22;;;;;;;;;;;;;;;13.58;38.74;100525.81;5488172;26;20286;-81
2024/04/21 04:07:14;;;;;;;;;;;;;;;13.59;41.52;100525.50;5487899;26;19951;-79
2024/04/21 04:10:04;;;;;;;;;;;;;;;13.36;35.43;100520.78;5504097;26;19940;-82
2024/04/21 04:12:51;;;;;;;;;;;;;;;13.11;32.20;100514.41;5513604;25;19947;-79
2024/04/21 04:15:43;;;;;;;;;;;;;;;12.94;32.01;100523.59;5495051;26;19948;-81
2024/04/21 04:18:35;;;;;;;;;;;;;;;13.03;35.33;100528.97;5524192;25;20407;-80
2024/04/21 04:21:25;;;;;;;;;;;;;;;12.81;32.10;100524.66;5468310;26;19948;-82
2024/04/21 04:24:17;;;;;;;;;;;;;;;12.67;30.84;100524.16;5524072;25;19940;-79
2024/04/21 04:27:04;;;;;;;;;;;;;;;12.63;31.62;100521.28;5487115;26;20290;-82
2024/04/21 04:29:54;;;;;;;;;;;;;;;12.59;32.31;100522.28;5504622;26;19948;-78
2024/04/21 04:32:45;;;;;;;;;;;;;;;12.55;32.96;100524.88;5486727;26;19960;-79
2024/04/21 04:35:38;;;;;;;;;;;;;;;12.50;31.51;100521.53;5486770;26;19963;-82
2024/04/21 04:38:30;;;;;;;;;;;;;;;12.54;32.97;100536.13;5491343;25;19959;-81
2024/04/21 04:41:22;;;;;;;;;;;;;;;12.63;35.79;100534.13;5498783;25;19955;-81
2024/04/21 04:44:12;;;;;;;;;;;;;;;12.47;33.61;100527.66;5522041;25;19947;-81
2024/04/21 04:47:04;;;;;;;;;;;;;;;12.21;32.83;100536.03;5508165;26;19959;-81
2024/04/21 04:49:56;;;;;;;;;;;;;;;12.06;33.55;100544.78;5512285;26;19952;-81
2024/04/21 04:52:46;;;;;;;;;;;;;;;12.04;33.37;100539.63;5517145;25;19948;-80
2024/04/21 04:55:38;;;;;;;;;;;;;;;12.08;33.07;100551.50;5541294;25;19926;-82
2024/04/21 04:58:28;;;;;;;;;;;;;;;12.04;32.96;100547.03;5503599;25;19951;-81
2024/04/21 05:01:20;;;;;;;;;;;;;;;12.08;35.18;100556.97;5518782;25;19951;-83
2024/04/21 05:04:10;;;;;;;;;;;;;;;12.19;36.88;100554.66;5527846;26;20755;-82
2024/04/21 05:07:02;;;;;;;;;;;;;;;12.21;36.48;100563.28;5517169;26;19952;-82
2024/04/21 05:09:53;;;;;;;;;;;;;;;12.15;35.72;100554.50;5486959;26;19947;-81
2024/04/21 05:12:46;;;;;;;;;;;;;;;12.18;36.60;100553.84;5519631;25;19952;-82
2024/04/21 05:15:38;;;;;;;;;;;;;;;12.22;38.17;100559.44;5504631;26;20289;-82
2024/04/21 05:18:30;;;;;;;;;;;;;;;12.08;36.30;100556.16;5510967;26;19951;-83
2024/04/21 05:21:19;;;;;;;;;;;;;;;12.14;38.16;100561.06;5496489;26;19939;-84
2024/04/21 05:24:09;;;;;;;;;;;;;;;12.10;39.83;100560.13;5527979;25;19939;-84
2024/04/21 05:27:01;;;;;;;;;;;;;;;12.16;39.55;100563.47;5529732;26;19952;-83
2024/04/21 05:29:50;;;;;;;;;;;;;;;12.19;39.73;100560.88;5526682;25;19947;-83
2024/04/21 05:32:42;;;;;;;;;;;;;;;12.24;39.04;100568.09;5527463;25;19969;-85
2024/04/21 05:35:32;;;;;;;;;;;;;;;11.96;40.19;100563.09;5492553;25;19952;-85
2024/04/21 05:38:24;;;;;;;;;;;;;;;11.86;39.62;100573.56;5497250;25;19956;-82
2024/04/21 05:41:16;;;;;;;;;;;;;;;11.84;39.59;100571.16;5519907;25;19948;-81
2024/04/21 05:44:06;;;;;;;;;;;;;;;11.83;39.24;100574.22;5498396;25;19947;-85
2024/04/21 05:46:59;;;;;;;;;;;;;;;11.84;39.96;100579.31;5501744;25;19952;-81
2024/04/21 05:49:51;;;;;;;;;;;;;;;11.86;39.58;100574.38;5491643;25;19955;-83
2024/04/21 05:52:43;;;;;;;;;;;;;;;11.90;40.21;100575.31;5522664;25;20392;-82
2024/04/21 05:55:35;;;;;;;;;;;;;;;12.03;41.30;100586.31;5513575;25;19951;-81
2024/04/21 05:58:32;;;;;;;;;;;;;;;12.16;43.22;100571.66;5510773;25;20290;-81
2024/04/21 06:01:24;;;;;;;;;;;;;;;12.18;41.88;100570.22;5492859;25;19952;-81
2024/04/21 06:04:16;;;;;;;;;;;;;;;12.21;43.09;100572.25;5520796;25;19952;-81
2024/04/21 06:07:08;;;;;;;;;;;;;;;12.24;41.22;100579.00;5518656;25;19952;-82
2024/04/21 06:09:55;;;;;;;;;;;;;;;12.60;39.43;100575.69;5500477;26;19947;-82
2024/04/21 06:12:47;;;;;;;;;;;;;;;12.79;41.42;100576.84;5526859;25;19951;-82
2024/04/21 06:15:39;;;;;;;;;;;;;;;12.79;39.52;100570.59;5501953;26;19967;-82
2024/04/21 06:18:29;;;;;;;;;;;;;;;12.52;39.48;100563.72;5527284;26;19947;-82
2024/04/21 06:21:21;;;;;;;;;;;;;;;12.53;39.76;100570.78;5528960;26;19967;-83
2024/04/21 06:24:19;;;;;;;;;;;;;;;12.56;38.39;100570.13;5526773;26;19951;-82
2024/04/21 06:27:09;;;;;;;;;;;;;;;12.66;40.01;100567.00;5518297;26;19948;-83
2024/04/21 06:29:56;;;;;;;;;;;;;;;12.65;35.70;100559.13;5505305;26;19950;-82
2024/04/21 06:32:51;;;;;;;;;;;;;;;12.76;36.46;100563.88;5510708;25;19947;-83
2024/04/21 06:35:43;;;;;;;;;;;;;;;12.83;36.11;100572.31;5521315;26;19955;-82
2024/04/21 06:38:35;;;;;;;;;;;;;;;12.89;34.11;100564.75;5530726;25;19951;-82
2024/04/21 06:41:25;;;;;;;;;;;;;;;12.96;33.94;100562.25;5526959;25;20388;-81
2024/04/21 06:44:17;;;;;;;;;;;;;;;13.03;34.62;100567.19;5532913;25;19951;-81
2024/04/21 06:47:09;;;;;;;;;;;;;;;13.11;33.28;100563.56;5489711;26;19951;-81
2024/04/21 06:49:59;;;;;;;2.60;0.95;;;;;;;12.44;32.76;100554.47;5512604;25;20384;-78
2024/04/21 06:52:51;;;;;;;1.25;1.05;;;;;;;13.30;31.98;100561.19;5498935;25;20033;-77
2024/04/21 06:55:40;;;;;;;12.98;1.23;;;;;;;16.13;27.54;100553.13;5526029;26;20029;-77
2024/04/21 06:58:33;;;;;;;;;;;;;;;16.53;28.00;100552.03;5521114;25;20033;-78
2024/04/21 07:01:25;;;;;;;;;;;;;;;14.43;33.42;100559.44;5500146;25;20282;-79
2024/04/21 07:04:19;;;;;;;4.68;1.40;;;;;;;14.40;33.10;100554.66;5493876;26;20373;-84
2024/04/21 07:07:12;;;;;;;0.77;0.60;;;;;;;14.86;29.23;100556.03;5518043;26;20033;-83
2024/04/21 07:10:07;;;;;;;1.15;1.02;;;;;;;15.01;28.64;100543.53;5496427;26;20034;-83
2024/04/21 07:13:01;;;;;;;4.43;1.33;;;;;;;15.15;33.28;100554.06;5513166;26;20486;-84
2024/04/21 07:15:56;;;;;;;1.53;0.97;;;;;;;21.18;23.23;100565.16;5489561;26;20499;-82
2024/04/21 07:18:46;;;;;;;4.68;1.05;;;;;;;25.41;18.58;100563.25;5491872;26;20390;-85
2024/04/21 07:21:40;;;;;;;4.97;0.75;;;;;;;26.43;19.04;100565.59;5497868;26;20487;-83
2024/04/21 07:24:34;;;;;;;1.00;0.70;;;;;;;27.79;16.79;100567.13;5516231;26;20505;-82
2024/04/21 07:27:27;;;;;;;1.10;0.52;;;;;;;29.54;13.92;100562.66;5508654;26;20038;-84
2024/04/21 07:30:19;;;;;;;3.95;0.73;;;;;;;32.90;14.04;100579.88;5491651;26;20033;-80
2024/04/21 07:33:11;;;;;;;0.50;0.40;;;;;;;31.82;11.13;100570.06;5504828;26;20356;-82
2024/04/21 07:36:03;;;;;;;1.98;0.50;;;;;;;28.52;13.09;100569.25;5515397;25;20037;-83
2024/04/21 07:38:58;;;;;;;0.52;0.20;;;;;;;30.31;11.88;100580.97;5493637;26;20018;-81
2024/04/21 07:41:53;;;;;;;1.52;0.40;;;;;;;29.84;12.83;100577.34;5512192;25;20029;-75
2024/04/21 07:44:47;;;;;;;0.30;0.30;;;;;;;22.32;18.36;100558.50;5523950;26;20045;-75
2024/04/21 07:47:42;;;;;;;0.28;0.20;;;;;;;18.73;22.26;100565.03;5521988;25;20013;-77
2024/04/21 07:50:36;;;;;;;0.82;0.28;;;;;;;17.56;23.17;100549.41;5488649;26;20034;-76
2024/04/21 07:53:31;;;;;;;1.42;0.20;;;;;;;16.56;24.91;100554.06;5503202;25;20389;-77
2024/04/21 07:56:26;;;;;;;0.43;0.20;;;;;;;15.60;26.23;100551.78;5518037;25;20383;-76
2024/04/21 07:59:20;;;;;;;2.75;0.50;;;;;;;15.64;26.91;100552.69;5477102;26;20045;-79
2024/04/21 08:02:15;;;;;;;1.55;0.60;;;;;;;15.08;27.77;100560.19;5468891;26;20006;-78
2024/04/21 08:05:18;;;;;;;3.00;0.80;;;;;;;15.05;30.94;100563.59;5512500;26;20026;-79
2024/04/21 08:08:13;;;;;;;1.30;0.60;;;;;;;15.41;27.71;100555.19;5515672;25;20018;-79
2024/04/21 08:11:07;;;;;;;1.70;0.60;;;;;;;15.76;26.89;100560.03;5487219;26;20487;-79
2024/04/21 08:13:59;;;;;;;5.53;0.65;;;;;;;15.12;29.27;100558.31;5486154;26;20038;-79
2024/04/21 08:16:51;;;;;;;2.08;0.50;;;;;;;18.97;25.30;100564.53;5517544;26;20034;-80
2024/04/21 08:19:46;;;;;;;5.45;0.60;;;;;;;24.71;18.10;100568.53;5484988;25;20398;-78
2024/04/21 08:22:41;;;;;;;5.10;0.40;;;;;;;26.21;15.87;100567.97;5506710;26;20368;-85
2024/04/21 08:25:36;;;;;;;0.40;0.30;;;;;;;33.60;11.22;100582.66;5506497;26;20282;-86
2024/04/21 08:28:33;;;;;;;;;;;;;;;25.76;15.48;100569.53;5485452;26;20051;-79
2024/04/21 08:31:23;;;;;;;;;;;;;;;21.07;20.60;100573.38;5529091;26;20397;-78
2024/04/21 08:34:13;;;;;;;;;;;;;;;18.01;23.71;100567.09;5500313;26;20397;-78
2024/04/21 08:37:05;;;;;;;;;;;;;;;17.26;25.95;100565.75;5528372;26;19947;-80
2024/04/21 08:39:57;;;;;;;;;;;;;;;16.85;26.21;100561.78;5526859;26;20397;-78
2024/04/21 08:42:50;;;;;;;;;;;;;;;16.81;25.27;100565.63;5526651;26;20389;-80
2024/04/21 08:45:43;;;;;;;;;;;;;;;17.06;25.73;100564.19;5527697;26;19951;-77
2024/04/21 08:48:35;;;;;;;;;;;;;;;16.09;25.79;100556.94;5528343;26;19951;-79
2024/04/21 08:51:26;;;;;;;;;;;;;;;16.00;25.85;100551.59;5515268;25;19948;-78
2024/04/21 08:54:18;;;;;;;;;;;;;;;16.48;27.57;100552.31;5499095;26;19956;-81
2024/04/21 08:57:11;;;;;;;;;;;;;;;16.72;27.31;100551.28;5517510;25;19940;-79
2024/04/21 09:00:04;;;;;;;;;;;;;;;16.55;27.23;100547.00;5515695;25;19940;-79
2024/04/21 09:02:56;;;;;;;;;;;;;;;16.86;27.02;100546.91;5514404;25;19939;-79
2024/04/21 09:05:52;;;;;;;;;;;;;;;16.63;27.99;100540.53;5526444;25;19952;-79
2024/04/21 09:08:41;;;;;;;;;;;;;;;15.66;29.63;100533.13;5522337;26;19955;-80
2024/04/21 09:11:34;;;;;;;;;;;;;;;16.18;31.73;100536.38;5489365;26;19971;-80
2024/04/21 09:14:29;;;;;;;;;;;;;;;16.04;30.60;100538.78;5492763;26;20285;-80
2024/04/21 09:17:21;;;;;;;;;;;;;;;16.48;29.22;100533.09;5485638;26;20010;-80
2024/04/21 09:20:14;;;;;;;;;;;;;;;16.47;30.17;100535.06;5514728;25;19951;-80
2024/04/21 09:23:01;;;;;;;;;;;;;;;16.46;29.51;100533.47;5485240;26;19948;-82
2024/04/21 09:25:50;;;;;;;;;;;;;;;16.79;27.94;100524.78;5501993;26;19956;-79
2024/04/21 09:28:40;;;;;;;;;;;;;;;16.83;29.08;100519.34;5545287;25;19948;-79
2024/04/21 09:31:29;;;;;;;;;;;;;;;16.72;30.68;100530.13;5522326;25;19944;-79
2024/04/21 09:34:22;;;;;;;;;;;;;;;15.99;30.31;100519.06;5506481;26;19923;-79
2024/04/21 09:37:17;;;;;;;;;;;;;;;16.05;29.47;100525.88;5513293;26;19955;-79
2024/04/21 09:40:12;;;;;;;;;;;;;;;16.05;28.78;100531.38;5510793;26;20393;-80
2024/04/21 09:43:04;;;;;;;;;;;;;;;15.93;30.45;100515.81;5509318;26;19947;-79
2024/04/21 09:45:56;;;;;;;;;;;;;;;16.03;29.91;100519.94;5521240;25;19951;-79
2024/04/21 09:48:49;;;;;;;;;;;;;;;16.13;28.18;100517.44;5495980;26;19951;-79
2024/04/21 09:51:41;;;;;;;;;;;;;;;15.97;28.71;100510.38;5517670;25;19951;-79
2024/04/21 09:54:35;;;;;;;;;;;;;;;16.03;28.80;100508.97;5497531;25;19950;-79
2024/04/21 09:57:34;;;;;;;;;;;;;;;15.86;30.27;100510.13;5519261;25;19955;-80
2024/04/21 10:00:26;;;;;;;;;;;;;;;16.27;30.01;100508.72;5520043;25;19947;-79
2024/04/21 10:03:19;;;;;;;;;;;;;;;16.15;29.58;100512.38;5519810;25;20408;-79
2024/04/21 10:06:16;;;;;;;;;;;;;;;16.16;30.26;100510.44;5520328;25;19959;-79
2024/04/21 10:09:09;;;;;;;;;;;;;;;16.40;30.31;100501.97;5512376;26;20405;-78
2024/04/21 10:12:01;;;;;;;;;;;;;;;16.64;30.33;100500.94;5522639;25;20225;-79
2024/04/21 10:14:53;;;;;;;;;;;;;;;16.56;30.50;100499.16;5525986;25;19963;-78
2024/04/21 10:17:57;;;;;;;;;;;;;;;16.59;30.24;100495.72;5525952;25;19951;-79
2024/04/21 10:20:47;;;;;;;;;;;;;;;16.95;30.08;100487.06;5511782;26;19951;-79
2024/04/21 10:23:34;;;;;;;;;;;;;;;16.52;29.34;100485.34;5515968;26;19952;-79
2024/04/21 10:26:26;;;;;;;;;;;;;;;16.87;28.92;100479.81;5488688;26;19948;-80
2024/04/21 10:29:15;;;;;;;;;;;;;;;17.05;28.66;100482.91;5512938;26;19952;-79
2024/04/21 10:32:17;;;;;;;;;;;;;;;16.70;27.45;100476.72;5513140;25;19947;-79
2024/04/21 10:35:09;;;;;;;;;;;;;;;17.19;29.20;100477.66;5525337;26;19951;-81
2024/04/21 10:38:02;;;;;;;;;;;;;;;17.60;27.06;100478.00;5525889;25;20349;-80
2024/04/21 10:40:57;;;;;;;;;;;;;;;17.25;27.93;100470.72;5525256;25;19947;-79
2024/04/21 10:43:49;;;;;;;;;;;;;;;17.60;27.53;100469.75;5509604;26;19955;-79
2024/04/21 10:46:42;;;;;;;;;;;;;;;17.33;25.69;100471.63;5520220;26;19952;-81
2024/04/21 10:49:34;;;;;;;;;;;;;;;17.25;25.34;100459.72;5462984;26;19948;-80
2024/04/21 10:52:23;;;;;;;;;;;;;;;17.27;25.29;100468.38;5488528;25;19956;-80
2024/04/21 10:55:15;;;;;;;;;;;;;;;17.47;24.41;100464.41;5487652;26;19948;-79
2024/04/21 10:58:08;;;;;;;;;;;;;;;16.78;24.25;100460.03;5487237;26;19948;-79
2024/04/21 11:01:00;;;;;;;;;;;;;;;16.85;24.67;100456.63;5513195;25;20400;-79
2024/04/21 11:03:52;;;;;;;;;;;;;;;17.04;23.82;100460.13;5523536;26;20384;-80
2024/04/21 11:06:45;;;;;;;;;;;;;;;16.92;23.80;100457.53;5498307;26;19923;-79
2024/04/21 11:09:37;;;;;;;;;;;;;;;16.94;24.03;100444.25;5523750;25;20424;-80
2024/04/21 11:12:29;;;;;;;;;;;;;;;17.37;24.96;100445.78;5523416;25;19951;-79
2024/04/21 11:15:21;;;;;;;;;;;;;;;16.83;25.09;100442.44;5523971;25;19951;-79
2024/04/21 11:18:13;;;;;;;;;;;;;;;16.48;25.20;100437.03;5524110;25;19947;-79
2024/04/21 11:21:03;;;;;;;;;;;;;;;16.47;25.09;100429.94;5524409;26;19947;-79
2024/04/21 11:23:55;;;;;;;;;;;;;;;16.52;24.52;100438.69;5518356;25;20289;-79
2024/04/21 11:26:45;;;;;;;;;;;;;;;17.12;27.68;100439.06;5523344;25;20302;-80
2024/04/21 11:29:37;;;;;;;;;;;;;;;16.90;24.20;100437.91;5524343;26;19952;-79
2024/04/21 11:32:29;;;;;;;;;;;;;;;16.92;24.51;100435.56;5487761;26;19948;-79
2024/04/21 11:35:21;;;;;;;;;;;;;;;16.68;24.05;100433.16;5513062;25;19951;-79
2024/04/21 11:38:14;;;;;;;;;;;;;;;16.25;24.38;100426.00;5512852;25;20401;-79
2024/04/21 11:41:06;;;;;;;;;;;;;;;16.13;24.34;100418.69;5487031;26;19951;-79
2024/04/21 11:43:58;;;;;;;;;;;;;;;16.07;24.51;100422.88;5519731;26;19975;-79
2024/04/21 11:46:50;;;;;;;;;;;;;;;16.52;23.10;100418.69;5518004;25;19943;-79
2024/04/21 11:49:42;;;;;;;;;;;;;;;16.79;23.57;100419.63;5523499;25;19959;-79
2024/04/21 11:52:34;;;;;;;;;;;;;;;16.32;24.80;100417.91;5524240;25;19951;-79
2024/04/21 11:55:26;;;;;;;;;;;;;;;16.83;25.17;100407.53;5507707;26;19948;-80
2024/04/21 11:58:18;;;;;;;;;;;;;;;16.94;25.24;100405.00;5487816;26;19955;-79
2024/04/21 12:01:06;;;;;;;;;;;;;;;17.36;25.50;100407.69;5514269;25;20298;-80
2024/04/21 12:03:58;;;;;;;;;;;;;;;16.52;24.25;100404.97;5494440;26;20289;-79
2024/04/21 12:06:50;;;;;;;;;;;;;;;16.46;23.70;100412.69;5522925;25;19954;-79
2024/04/21 12:09:42;;;;;;;;;;;;;;;16.27;23.07;100408.00;5497615;25;19951;-79
2024/04/21 12:12:32;;;;;;;;;;;;;;;16.42;23.89;100414.56;5514782;25;19941;-78
2024/04/21 12:15:21;;;;;;;;;;;;;;;16.88;22.88;100404.50;5497353;26;19948;-79
2024/04/21 12:18:11;;;;;;;;;;;;;;;16.86;22.40;100404.09;5521007;25;19947;-80
2024/04/21 12:21:03;;;;;;;;;;;;;;;17.22;23.11;100404.72;5534991;25;19959;-79
2024/04/21 12:23:55;;;;;;;;;;;;;;;17.41;21.96;100396.38;5488320;25;20286;-78
2024/04/21 12:26:47;;;;;;;;;;;;;;;17.82;22.14;100391.91;5531899;25;20011;-80
2024/04/21 12:29:40;;;;;;;;;;;;;;;17.91;21.27;100390.47;5502712;25;19955;-78
2024/04/21 12:32:37;;;;;;;;;;;;;;;17.66;21.96;100378.34;5472503;26;19948;-79
2024/04/21 12:35:26;;;;;;;;;;;;;;;17.48;22.24;100383.53;5535422;25;20312;-78
2024/04/21 12:38:18;;;;;;;;;;;;;;;17.12;23.34;100377.84;5514526;25;19948;-78
2024/04/21 12:41:08;;;;;;;;;;;;;;;17.35;22.26;100370.34;5488208;26;19948;-79
2024/04/21 12:43:55;;;;;;;;;;;;;;;16.97;24.13;100374.84;5510969;25;19947;-79
2024/04/21 12:46:47;;;;;;;;;;;;;;;16.85;24.13;100369.53;5524706;25;19951;-78
2024/04/21 12:49:39;;;;;;;;;;;;;;;16.90;22.82;100361.00;5523714;25;19948;-81
2024/04/21 12:52:29;;;;;;;;;;;;;;;16.90;22.70;100354.72;5522916;25;19951;-78
2024/04/21 12:55:21;;;;;;;;;;;;;;;16.94;22.33;100361.84;5487325;26;19948;-78
2024/04/21 12:58:16;;;;;;;;;;;;;;;16.91;22.66;100362.59;5524022;25;19940;-78
2024/04/21 13:01:08;;;;;;;;;;;;;;;16.97;21.48;100352.06;5525155;26;19947;-80
2024/04/21 13:03:57;;;;;;;;;;;;;;;17.20;20.90;100349.31;5497566;25;20463;-78
2024/04/21 13:06:46;;;;;;;;;;;;;;;17.02;20.90;100349.81;5523161;25;19951;-78
2024/04/21 13:09:39;;;;;;;;;;;;;;;16.89;20.22;100347.63;5523021;25;19951;-78
2024/04/21 13:12:31;;;;;;;;;;;;;;;17.09;20.11;100352.69;5523434;25;19951;-79
2024/04/21 13:15:26;;;;;;;;;;;;;;;17.21;21.79;100348.16;5487206;26;19952;-78
2024/04/21 13:18:18;;;;;;;;;;;;;;;16.98;20.69;100356.41;5502421;26;19956;-79
2024/04/21 13:21:10;;;;;;;;;;;;;;;16.19;30.85;100353.34;5513722;26;19966;-78
2024/04/21 13:23:59;;;;;;;;;;;;;;;15.92;31.86;100349.66;5520475;25;19939;-79
2024/04/21 13:26:52;;;;;;;;;;;;;;;15.82;33.76;100355.72;5499779;26;20408;-78
2024/04/21 13:29:44;;;;;;;;;;;;;;;15.44;34.52;100361.88;5518417;25;19951;-79
2024/04/21 13:32:31;;;;;;;;;;;;;;;15.33;35.50;100367.13;5526909;25;19940;-79
2024/04/21 13:35:23;;;;;;;;;;;;;;;15.33;35.51;100369.88;5514070;26;19955;-78
2024/04/21 13:38:15;;;;;;;;;;;;;;;15.14;36.19;100366.22;5516250;26;19948;-79
2024/04/21 13:41:05;;;;;;;;;;;;;;;15.06;36.70;100367.22;5528028;26;19952;-78
2024/04/21 13:43:57;;;;;;;;;;;;;;;14.74;37.49;100372.66;5524097;25;19951;-78
2024/04/21 13:46:49;;;;;;;;;;;;;;;14.60;37.83;100363.28;5528257;26;19952;-78
2024/04/21 13:49:41;;;;;;;;;;;;;;;15.04;37.72;100364.03;5503024;25;19939;-80
2024/04/21 13:52:34;;;;;;;;;;;;;;;14.57;38.06;100361.25;5528423;25;19951;-78
2024/04/21 13:55:26;;;;;;;;;;;;;;;14.70;38.11;100371.78;5516045;25;19952;-78
2024/04/21 13:58:18;;;;;;;;;;;;;;;14.82;39.01;100365.44;5508101;26;19956;-78
2024/04/21 14:01:07;;;;;;;;;;;;;;;14.75;38.73;100362.50;5519047;26;19951;-78
2024/04/21 14:03:59;;;;;;;;;;;;;;;14.64;38.67;100369.66;5521076;26;19948;-78
2024/04/21 14:06:49;;;;;;;;;;;;;;;14.78;38.96;100367.31;5522008;26;19959;-79
2024/04/21 14:09:38;;;;;;;;;;;;;;;14.79;39.63;100366.94;5529914;26;19951;-78
2024/04/21 14:12:30;;;;;;;;;;;;;;;14.65;39.32;100357.56;5527207;25;19951;-78
2024/04/21 14:15:20;;;;;;;;;;;;;;;14.79;39.71;100363.41;5529803;25;19964;-79
2024/04/21 14:18:12;;;;;;;;;;;;;;;15.03;39.29;100363.25;5529458;25;19964;-78
2024/04/21 14:21:04;;;;;;;;;;;;;;;15.08;38.50;100373.16;5500701;26;20316;-78
2024/04/21 14:23:53;;;;;;;;;;;;;;;15.05;39.19;100362.88;5528709;25;19950;-78
2024/04/21 14:26:45;;;;;;;;;;;;;;;14.60;39.68;100372.28;5528960;25;19939;-78
2024/04/21 14:29:34;;;;;;;;;;;;;;;14.59;39.75;100378.09;5517991;26;20306;-78
2024/04/21 14:32:24;;;;;;;;;;;;;;;14.70;39.57;100371.78;5526557;25;19947;-78